sensor_id;sensor_type;location;lat;lon;timestamp;pressure;altitude;pressure_sealevel;temperature;humidity
8280;BME280;8335;42.646;23.380;2023-06-14T00:01:48;145893.81;;;17.50;100.00
8280;BME280;8335;42.646;23.380;2023-06-14T00:04:15;145900.06;;;17.53;100.00
8280;BME280;8335;42.646;23.380;2023-06-14T00:06:43;145902.56;;;17.54;100.00
8280;BME280;8335;42.646;23.380;2023-06-14T00:09:11;145902.56;;;17.54;100.00
8280;BME280;8335;42.646;23.380;2023-06-14T00:11:38;145906.28;;;17.55;100.00
8280;BME280;8335;42.646;23.380;2023-06-14T00:14:07;145898.81;;;17.52;100.00
8280;BME280;8335;42.646;23.380;2023-06-14T00:16:34;145901.31;;;17.53;100.00
8280;BME280;8335;42.646;23.380;2023-06-14T00:19:01;145896.31;;;17.51;100.00
8280;BME280;8335;42.646;23.380;2023-06-14T00:21:30;145886.31;;;17.47;100.00
8280;BME280;8335;42.646;23.380;2023-06-14T00:23:58;145892.53;;;17.50;100.00
8280;BME280;8335;42.646;23.380;2023-06-14T00:26:24;145892.53;;;17.50;100.00
8280;BME280;8335;42.646;23.380;2023-06-14T00:28:51;145890.03;;;17.49;100.00
8280;BME280;8335;42.646;23.380;2023-06-14T00:31:20;145892.53;;;17.50;100.00
8280;BME280;8335;42.646;23.380;2023-06-14T00:33:46;145885.06;;;17.47;100.00
8280;BME280;8335;42.646;23.380;2023-06-14T00:36:13;145891.28;;;17.49;100.00
8280;BME280;8335;42.646;23.380;2023-06-14T00:38:40;145888.78;;;17.48;100.00
8280;BME280;8335;42.646;23.380;2023-06-14T00:41:07;145885.06;;;17.47;100.00
8280;BME280;8335;42.646;23.380;2023-06-14T00:43:33;145871.28;;;17.41;100.00
8280;BME280;8335;42.646;23.380;2023-06-14T00:46:01;145872.53;;;17.42;100.00
8280;BME280;8335;42.646;23.380;2023-06-14T00:48:29;145872.53;;;17.42;100.00
8280;BME280;8335;42.646;23.380;2023-06-14T00:50:57;145876.31;;;17.43;100.00
8280;BME280;8335;42.646;23.380;2023-06-14T00:53:27;145886.31;;;17.47;100.00
8280;BME280;8335;42.646;23.380;2023-06-14T00:55:54;145887.53;;;17.48;100.00
8280;BME280;8335;42.646;23.380;2023-06-14T00:58:22;145888.78;;;17.48;100.00
8280;BME280;8335;42.646;23.380;2023-06-14T01:00:49;145892.53;;;17.50;100.00
8280;BME280;8335;42.646;23.380;2023-06-14T01:03:16;145885.06;;;17.47;100.00
8280;BME280;8335;42.646;23.380;2023-06-14T01:05:51;145875.03;;;17.43;100.00
8280;BME280;8335;42.646;23.380;2023-06-14T01:08:24;145866.31;;;17.39;100.00
8280;BME280;8335;42.646;23.380;2023-06-14T01:11:01;145858.84;;;17.36;100.00
8280;BME280;8335;42.646;23.380;2023-06-14T01:13:34;145862.56;;;17.38;100.00
8280;BME280;8335;42.646;23.380;2023-06-14T01:16:02;145861.31;;;17.37;100.00
8280;BME280;8335;42.646;23.380;2023-06-14T01:18:29;145860.06;;;17.37;100.00
8280;BME280;8335;42.646;23.380;2023-06-14T01:20:58;145857.53;;;17.36;100.00
8280;BME280;8335;42.646;23.380;2023-06-14T01:23:26;145855.03;;;17.34;100.00
8280;BME280;8335;42.646;23.380;2023-06-14T01:25:58;145853.81;;;17.34;100.00
8280;BME280;8335;42.646;23.380;2023-06-14T01:28:26;145856.28;;;17.35;100.00
8280;BME280;8335;42.646;23.380;2023-06-14T01:31:00;145860.06;;;17.37;100.00
8280;BME280;8335;42.646;23.380;2023-06-14T01:33:31;145853.81;;;17.34;100.00
8280;BME280;8335;42.646;23.380;2023-06-14T01:35:59;145855.03;;;17.34;100.00
8280;BME280;8335;42.646;23.380;2023-06-14T01:38:28;145851.31;;;17.33;100.00
8280;BME280;8335;42.646;23.380;2023-06-14T01:40:58;145846.31;;;17.31;100.00
8280;BME280;8335;42.646;23.380;2023-06-14T01:43:28;145855.03;;;17.34;100.00
8280;BME280;8335;42.646;23.380;2023-06-14T01:45:57;145856.28;;;17.35;100.00
8280;BME280;8335;42.646;23.380;2023-06-14T01:48:26;145863.81;;;17.38;100.00
8280;BME280;8335;42.646;23.380;2023-06-14T01:50:53;145847.56;;;17.31;100.00
8280;BME280;8335;42.646;23.380;2023-06-14T01:53:19;145848.81;;;17.32;100.00
8280;BME280;8335;42.646;23.380;2023-06-14T01:55:48;145845.06;;;17.30;100.00
8280;BME280;8335;42.646;23.380;2023-06-14T01:58:15;145795.09;;;17.10;100.00
8280;BME280;8335;42.646;23.380;2023-06-14T02:00:42;145825.09;;;17.22;100.00
8280;BME280;8335;42.646;23.380;2023-06-14T02:03:10;145810.09;;;17.16;100.00
8280;BME280;8335;42.646;23.380;2023-06-14T02:05:38;145805.06;;;17.14;100.00
8280;BME280;8335;42.646;23.380;2023-06-14T02:08:05;145798.81;;;17.12;100.00
8280;BME280;8335;42.646;23.380;2023-06-14T02:10:32;145798.81;;;17.12;100.00
8280;BME280;8335;42.646;23.380;2023-06-14T02:13:00;145795.09;;;17.10;100.00
8280;BME280;8335;42.646;23.380;2023-06-14T02:15:27;145785.06;;;17.06;100.00
8280;BME280;8335;42.646;23.380;2023-06-14T02:17:59;145785.06;;;17.06;100.00
8280;BME280;8335;42.646;23.380;2023-06-14T02:20:27;145785.06;;;17.06;100.00
8280;BME280;8335;42.646;23.380;2023-06-14T02:22:54;145777.59;;;17.03;100.00
8280;BME280;8335;42.646;23.380;2023-06-14T02:25:21;145782.56;;;17.05;100.00
8280;BME280;8335;42.646;23.380;2023-06-14T02:27:47;145782.56;;;17.05;100.00
8280;BME280;8335;42.646;23.380;2023-06-14T02:30:16;145781.34;;;17.04;100.00
8280;BME280;8335;42.646;23.380;2023-06-14T02:32:42;145780.09;;;17.04;100.00
8280;BME280;8335;42.646;23.380;2023-06-14T02:35:09;145780.09;;;17.04;100.00
8280;BME280;8335;42.646;23.380;2023-06-14T02:37:36;145782.56;;;17.05;100.00
8280;BME280;8335;42.646;23.380;2023-06-14T02:40:04;145785.06;;;17.06;100.00
8280;BME280;8335;42.646;23.380;2023-06-14T02:42:31;145788.84;;;17.08;100.00
8280;BME280;8335;42.646;23.380;2023-06-14T02:44:58;145790.09;;;17.08;100.00
8280;BME280;8335;42.646;23.380;2023-06-14T02:47:27;145790.09;;;17.08;100.00
8280;BME280;8335;42.646;23.380;2023-06-14T02:49:54;145796.34;;;17.11;100.00
8280;BME280;8335;42.646;23.380;2023-06-14T02:52:20;145800.06;;;17.12;100.00
8280;BME280;8335;42.646;23.380;2023-06-14T02:54:47;145811.34;;;17.17;100.00
8280;BME280;8335;42.646;23.380;2023-06-14T02:57:14;145820.06;;;17.20;100.00
8280;BME280;8335;42.646;23.380;2023-06-14T02:59:41;145823.84;;;17.22;100.00
8280;BME280;8335;42.646;23.380;2023-06-14T03:02:08;145826.34;;;17.23;100.00
8280;BME280;8335;42.646;23.380;2023-06-14T03:04:36;145823.84;;;17.22;100.00
8280;BME280;8335;42.646;23.380;2023-06-14T03:07:04;145828.81;;;17.24;100.00
8280;BME280;8335;42.646;23.380;2023-06-14T03:09:35;145836.31;;;17.27;100.00
8280;BME280;8335;42.646;23.380;2023-06-14T03:12:03;145840.03;;;17.28;100.00
8280;BME280;8335;42.646;23.380;2023-06-14T03:14:30;145840.03;;;17.28;100.00
8280;BME280;8335;42.646;23.380;2023-06-14T03:16:57;145842.59;;;17.29;100.00
8280;BME280;8335;42.646;23.380;2023-06-14T03:19:24;145815.06;;;17.18;100.00
8280;BME280;8335;42.646;23.380;2023-06-14T03:21:52;145853.81;;;17.34;100.00
8280;BME280;8335;42.646;23.380;2023-06-14T03:24:22;145856.28;;;17.35;100.00
8280;BME280;8335;42.646;23.380;2023-06-14T03:26:49;145857.53;;;17.36;100.00
8280;BME280;8335;42.646;23.380;2023-06-14T03:29:15;145848.81;;;17.32;100.00
8280;BME280;8335;42.646;23.380;2023-06-14T03:31:56;145846.31;;;17.31;100.00
8280;BME280;8335;42.646;23.380;2023-06-14T03:34:23;145867.56;;;17.40;100.00
8280;BME280;8335;42.646;23.380;2023-06-14T03:36:50;145871.28;;;17.41;100.00
8280;BME280;8335;42.646;23.380;2023-06-14T03:39:18;145865.06;;;17.39;100.00
8280;BME280;8335;42.646;23.380;2023-06-14T03:41:45;145865.06;;;17.39;100.00
8280;BME280;8335;42.646;23.380;2023-06-14T03:44:15;145868.81;;;17.40;100.00
8280;BME280;8335;42.646;23.380;2023-06-14T03:46:42;145867.56;;;17.40;100.00
8280;BME280;8335;42.646;23.380;2023-06-14T03:49:09;145875.03;;;17.43;100.00
8280;BME280;8335;42.646;23.380;2023-06-14T03:51:36;145888.78;;;17.48;100.00
8280;BME280;8335;42.646;23.380;2023-06-14T03:54:03;145896.31;;;17.51;100.00
8280;BME280;8335;42.646;23.380;2023-06-14T03:56:31;145908.78;;;17.56;100.00
8280;BME280;8335;42.646;23.380;2023-06-14T03:58:58;145903.78;;;17.54;100.00
8280;BME280;8335;42.646;23.380;2023-06-14T04:01:25;145913.81;;;17.58;100.00
8280;BME280;8335;42.646;23.380;2023-06-14T04:03:55;145918.81;;;17.60;100.00
8280;BME280;8335;42.646;23.380;2023-06-14T04:06:22;145920.06;;;17.61;100.00
8280;BME280;8335;42.646;23.380;2023-06-14T04:08:50;145933.81;;;17.67;100.00
8280;BME280;8335;42.646;23.380;2023-06-14T04:11:17;145940.03;;;17.69;100.00
8280;BME280;8335;42.646;23.380;2023-06-14T04:13:46;145945.06;;;17.71;100.00
8280;BME280;8335;42.646;23.380;2023-06-14T04:16:13;145947.63;;;17.72;100.00
8280;BME280;8335;42.646;23.380;2023-06-14T04:18:40;145948.88;;;17.73;100.00
8280;BME280;8335;42.646;23.380;2023-06-14T04:21:07;145955.09;;;17.75;100.00
8280;BME280;8335;42.646;23.380;2023-06-14T04:23:34;145955.09;;;17.75;100.00
8280;BME280;8335;42.646;23.380;2023-06-14T04:26:00;145966.38;;;17.80;100.00
8280;BME280;8335;42.646;23.380;2023-06-14T04:28:28;145950.09;;;17.73;100.00
8280;BME280;8335;42.646;23.380;2023-06-14T04:30:57;145953.84;;;17.75;100.00
8280;BME280;8335;42.646;23.380;2023-06-14T04:33:26;145985.13;;;17.87;100.00
8280;BME280;8335;42.646;23.380;2023-06-14T04:35:53;146006.34;;;17.96;100.00
8280;BME280;8335;42.646;23.380;2023-06-14T04:38:21;146040.13;;;18.10;100.00
8280;BME280;8335;42.646;23.380;2023-06-14T04:40:50;146075.13;;;18.24;100.00
8280;BME280;8335;42.646;23.380;2023-06-14T04:43:18;146105.16;;;18.36;100.00
8280;BME280;8335;42.646;23.380;2023-06-14T04:45:52;146133.91;;;18.48;100.00
8280;BME280;8335;42.646;23.380;2023-06-14T04:48:21;146153.91;;;18.56;100.00
8280;BME280;8335;42.646;23.380;2023-06-14T04:50:48;146161.44;;;18.59;100.00
8280;BME280;8335;42.646;23.380;2023-06-14T04:53:18;146176.44;;;18.65;100.00
8280;BME280;8335;42.646;23.380;2023-06-14T04:55:48;146194.00;;;18.73;100.00
8280;BME280;8335;42.646;23.380;2023-06-14T04:58:15;146217.75;;;18.82;100.00
8280;BME280;8335;42.646;23.380;2023-06-14T05:00:42;146229.03;;;18.87;100.00
8280;BME280;8335;42.646;23.380;2023-06-14T05:03:09;146245.31;;;18.93;100.00
8280;BME280;8335;42.646;23.380;2023-06-14T05:05:40;146279.03;;;19.07;100.00
8280;BME280;8335;42.646;23.380;2023-06-14T05:08:07;146264.06;;;19.01;100.00
8280;BME280;8335;42.646;23.380;2023-06-14T05:10:34;146292.81;;;19.13;100.00
8280;BME280;8335;42.646;23.380;2023-06-14T05:13:01;146271.56;;;19.04;100.00
8280;BME280;8335;42.646;23.380;2023-06-14T05:15:28;146257.78;;;18.98;100.00
8280;BME280;8335;42.646;23.380;2023-06-14T05:17:55;146271.56;;;19.04;100.00
8280;BME280;8335;42.646;23.380;2023-06-14T05:20:22;146247.81;;;18.94;100.00
8280;BME280;8335;42.646;23.380;2023-06-14T05:22:52;146254.03;;;18.97;100.00
8280;BME280;8335;42.646;23.380;2023-06-14T05:25:19;146259.03;;;18.99;100.00
8280;BME280;8335;42.646;23.380;2023-06-14T05:27:47;146232.78;;;18.88;100.00
8280;BME280;8335;42.646;23.380;2023-06-14T05:30:14;146192.75;;;18.72;100.00
8280;BME280;8335;42.646;23.380;2023-06-14T05:32:44;146345.38;;;19.34;100.00
8280;BME280;8335;42.646;23.380;2023-06-14T05:35:11;146415.53;;;19.63;100.00
8280;BME280;8335;42.646;23.380;2023-06-14T05:37:38;146475.63;;;19.87;100.00
8280;BME280;8335;42.646;23.380;2023-06-14T05:40:07;146508.19;;;20.00;100.00
8280;BME280;8335;42.646;23.380;2023-06-14T05:42:34;146548.25;;;20.17;100.00
8280;BME280;8335;42.646;23.380;2023-06-14T05:45:01;146595.84;;;20.36;100.00
8280;BME280;8335;42.646;23.380;2023-06-14T05:47:28;146640.97;;;20.54;100.00
8280;BME280;8335;42.646;23.380;2023-06-14T05:49:55;146671.03;;;20.67;100.00
8280;BME280;8335;42.646;23.380;2023-06-14T05:52:22;146689.84;;;20.74;100.00
8280;BME280;8335;42.646;23.380;2023-06-14T05:54:49;146709.88;;;20.82;100.00
8280;BME280;8335;42.646;23.380;2023-06-14T05:57:17;146727.41;;;20.89;100.00
8280;BME280;8335;42.646;23.380;2023-06-14T05:59:43;146739.94;;;20.95;100.00
8280;BME280;8335;42.646;23.380;2023-06-14T06:02:10;146753.69;;;21.00;100.00
8280;BME280;8335;42.646;23.380;2023-06-14T06:04:37;146742.44;;;20.96;100.00
8280;BME280;8335;42.646;23.380;2023-06-14T06:07:04;146758.75;;;21.02;100.00
8280;BME280;8335;42.646;23.380;2023-06-14T06:09:32;146773.78;;;21.08;100.00
8280;BME280;8335;42.646;23.380;2023-06-14T06:11:59;146790.06;;;21.15;99.23
8280;BME280;8335;42.646;23.380;2023-06-14T06:14:27;146771.25;;;21.07;100.00
8280;BME280;8335;42.646;23.380;2023-06-14T06:16:54;146831.47;;;21.32;99.60
8280;BME280;8335;42.646;23.380;2023-06-14T06:19:20;146859.00;;;21.43;99.09
8280;BME280;8335;42.646;23.380;2023-06-14T06:21:47;146896.66;;;21.58;97.49
8280;BME280;8335;42.646;23.380;2023-06-14T06:24:14;146973.13;;;21.89;96.44
8280;BME280;8335;42.646;23.380;2023-06-14T06:26:41;147065.94;;;22.27;95.17
8280;BME280;8335;42.646;23.380;2023-06-14T06:29:08;147156.25;;;22.64;90.51
8280;BME280;8335;42.646;23.380;2023-06-14T06:31:37;147190.13;;;22.77;89.56
8280;BME280;8335;42.646;23.380;2023-06-14T06:34:03;147181.34;;;22.74;89.70
8280;BME280;8335;42.646;23.380;2023-06-14T06:36:30;147155.00;;;22.63;89.96
8280;BME280;8335;42.646;23.380;2023-06-14T06:38:57;147132.44;;;22.54;89.44
8280;BME280;8335;42.646;23.380;2023-06-14T06:41:24;147160.03;;;22.65;89.35
8280;BME280;8335;42.646;23.380;2023-06-14T06:43:50;147198.91;;;22.81;88.28
8280;BME280;8335;42.646;23.380;2023-06-14T06:46:17;147172.56;;;22.70;88.16
8280;BME280;8335;42.646;23.380;2023-06-14T06:48:46;147178.84;;;22.73;88.18
8280;BME280;8335;42.646;23.380;2023-06-14T06:51:12;147175.06;;;22.71;88.55
8280;BME280;8335;42.646;23.380;2023-06-14T06:53:42;147136.19;;;22.56;88.88
8280;BME280;8335;42.646;23.380;2023-06-14T06:56:09;147069.69;;;22.29;89.37
8280;BME280;8335;42.646;23.380;2023-06-14T06:58:36;147001.97;;;22.01;90.42
8280;BME280;8335;42.646;23.380;2023-06-14T07:01:02;146946.75;;;21.79;91.60
8280;BME280;8335;42.646;23.380;2023-06-14T07:03:29;146896.66;;;21.58;92.44
8280;BME280;8335;42.646;23.380;2023-06-14T07:05:58;146930.50;;;21.72;93.66
8280;BME280;8335;42.646;23.380;2023-06-14T07:08:25;146919.22;;;21.67;93.48
8280;BME280;8335;42.646;23.380;2023-06-14T07:10:52;146931.75;;;21.73;92.57
8280;BME280;8335;42.646;23.380;2023-06-14T07:13:19;146984.41;;;21.94;92.67
8280;BME280;8335;42.646;23.380;2023-06-14T07:15:46;147069.69;;;22.29;90.63
8280;BME280;8335;42.646;23.380;2023-06-14T07:18:12;147132.44;;;22.54;90.19
8280;BME280;8335;42.646;23.380;2023-06-14T07:20:39;147249.16;;;23.01;87.08
8280;BME280;8335;42.646;23.380;2023-06-14T07:23:08;147424.91;;;23.73;84.27
8280;BME280;8335;42.646;23.380;2023-06-14T07:25:35;147563.00;;;24.29;81.94
8280;BME280;8335;42.646;23.380;2023-06-14T07:28:01;147780.44;;;25.17;80.39
8280;BME280;8335;42.646;23.380;2023-06-14T07:30:28;148067.09;;;26.33;77.12
8280;BME280;8335;42.646;23.380;2023-06-14T07:32:55;148229.38;;;26.99;68.33
8280;BME280;8335;42.646;23.380;2023-06-14T07:35:22;148419.50;;;27.76;64.11
8280;BME280;8335;42.646;23.380;2023-06-14T07:37:49;148535.34;;;28.22;62.28
8280;BME280;8335;42.646;23.380;2023-06-14T07:40:17;148565.59;;;28.35;61.58
8280;BME280;8335;42.646;23.380;2023-06-14T07:42:44;148477.41;;;27.99;62.14
8280;BME280;8335;42.646;23.380;2023-06-14T07:45:12;148505.13;;;28.10;58.15
8280;BME280;8335;42.646;23.380;2023-06-14T07:47:40;148675.13;;;28.79;56.65
8280;BME280;8335;42.646;23.380;2023-06-14T07:50:07;148715.53;;;28.95;55.39
8280;BME280;8335;42.646;23.380;2023-06-14T07:52:34;148581.94;;;28.41;55.61
8280;BME280;8335;42.646;23.380;2023-06-14T07:55:01;148556.78;;;28.31;54.99
8280;BME280;8335;42.646;23.380;2023-06-14T07:57:29;148500.09;;;28.08;56.62
8280;BME280;8335;42.646;23.380;2023-06-14T07:59:56;148482.47;;;28.01;57.42
8280;BME280;8335;42.646;23.380;2023-06-14T08:02:22;148584.47;;;28.42;57.38
8280;BME280;8335;42.646;23.380;2023-06-14T08:04:49;148740.69;;;29.05;55.02
8280;BME280;8335;42.646;23.380;2023-06-14T08:07:16;148705.41;;;28.91;54.18
8280;BME280;8335;42.646;23.380;2023-06-14T08:09:43;148638.59;;;28.64;54.05
8280;BME280;8335;42.646;23.380;2023-06-14T08:12:10;148709.19;;;28.93;54.55
8280;BME280;8335;42.646;23.380;2023-06-14T08:14:39;148808.72;;;29.33;52.89
8280;BME280;8335;42.646;23.380;2023-06-14T08:17:05;148922.16;;;29.79;51.29
8280;BME280;8335;42.646;23.380;2023-06-14T08:19:32;149063.38;;;30.36;49.71
8280;BME280;8335;42.646;23.380;2023-06-14T08:21:59;149164.31;;;30.77;47.95
8280;BME280;8335;42.646;23.380;2023-06-14T08:24:26;149218.56;;;30.99;48.51
8280;BME280;8335;42.646;23.380;2023-06-14T08:26:53;149276.59;;;31.22;49.24
8280;BME280;8335;42.646;23.380;2023-06-14T08:29:20;149430.59;;;31.84;46.12
8280;BME280;8335;42.646;23.380;2023-06-14T08:31:48;149410.34;;;31.76;46.72
8280;BME280;8335;42.646;23.380;2023-06-14T08:34:15;149388.91;;;31.67;47.26
8280;BME280;8335;42.646;23.380;2023-06-14T08:36:41;149498.72;;;32.12;45.67
8280;BME280;8335;42.646;23.380;2023-06-14T08:39:08;149589.66;;;32.48;44.21
8280;BME280;8335;42.646;23.380;2023-06-14T08:41:35;149609.84;;;32.56;44.28
8280;BME280;8335;42.646;23.380;2023-06-14T08:44:02;149599.78;;;32.52;43.29
8280;BME280;8335;42.646;23.380;2023-06-14T08:46:32;149424.28;;;31.82;44.52
8280;BME280;8335;42.646;23.380;2023-06-14T08:49:01;149401.53;;;31.72;45.78
8280;BME280;8335;42.646;23.380;2023-06-14T08:51:31;149546.72;;;32.31;44.13
8280;BME280;8335;42.646;23.380;2023-06-14T08:54:00;149317.00;;;31.38;44.60
8280;BME280;8335;42.646;23.380;2023-06-14T08:56:27;149344.72;;;31.49;45.69
8280;BME280;8335;42.646;23.380;2023-06-14T08:58:56;149270.25;;;31.19;46.07
8280;BME280;8335;42.646;23.380;2023-06-14T09:01:23;149269.00;;;31.19;45.97
8280;BME280;8335;42.646;23.380;2023-06-14T09:03:50;149380.06;;;31.64;44.92
8280;BME280;8335;42.646;23.380;2023-06-14T09:06:19;149371.25;;;31.60;45.39
8280;BME280;8335;42.646;23.380;2023-06-14T09:08:49;149256.38;;;31.14;44.67
8280;BME280;8335;42.646;23.380;2023-06-14T09:11:17;149334.66;;;31.45;44.57
8280;BME280;8335;42.646;23.380;2023-06-14T09:13:44;149470.94;;;32.00;44.54
8280;BME280;8335;42.646;23.380;2023-06-14T09:16:12;149573.25;;;32.42;41.55
8280;BME280;8335;42.646;23.380;2023-06-14T09:18:39;149570.72;;;32.41;41.22
8280;BME280;8335;42.646;23.380;2023-06-14T09:21:10;149593.44;;;32.50;42.06
8280;BME280;8335;42.646;23.380;2023-06-14T09:23:39;149616.19;;;32.59;42.26
8280;BME280;8335;42.646;23.380;2023-06-14T09:26:10;149544.19;;;32.30;40.62
8280;BME280;8335;42.646;23.380;2023-06-14T09:28:41;149372.50;;;31.61;42.66
8280;BME280;8335;42.646;23.380;2023-06-14T09:31:08;149127.72;;;30.62;45.55
8280;BME280;8335;42.646;23.380;2023-06-14T09:33:35;148807.47;;;29.32;47.92
8280;BME280;8335;42.646;23.380;2023-06-14T09:36:03;148687.75;;;28.84;50.30
8280;BME280;8335;42.646;23.380;2023-06-14T09:38:30;148828.88;;;29.41;50.92
8280;BME280;8335;42.646;23.380;2023-06-14T09:40:58;148886.88;;;29.65;48.80
8280;BME280;8335;42.646;23.380;2023-06-14T09:43:25;149010.44;;;30.14;47.36
8280;BME280;8335;42.646;23.380;2023-06-14T09:45:54;149057.09;;;30.33;46.66
8280;BME280;8335;42.646;23.380;2023-06-14T09:48:21;149016.78;;;30.17;48.21
8280;BME280;8335;42.646;23.380;2023-06-14T09:50:49;148966.31;;;29.97;48.86
8280;BME280;8335;42.646;23.380;2023-06-14T09:53:19;148871.81;;;29.58;49.62
8280;BME280;8335;42.646;23.380;2023-06-14T09:55:49;148820.09;;;29.38;49.71
8280;BME280;8335;42.646;23.380;2023-06-14T09:58:20;148730.66;;;29.01;50.11
8280;BME280;8335;42.646;23.380;2023-06-14T10:00:50;148686.47;;;28.84;51.14
8280;BME280;8335;42.646;23.380;2023-06-14T10:03:21;148626.06;;;28.59;52.24
8280;BME280;8335;42.646;23.380;2023-06-14T10:05:50;148568.09;;;28.36;52.97
8280;BME280;8335;42.646;23.380;2023-06-14T10:08:19;148479.91;;;28.00;55.25
8280;BME280;8335;42.646;23.380;2023-06-14T10:10:46;148457.25;;;27.91;55.04
8280;BME280;8335;42.646;23.380;2023-06-14T10:13:13;148492.50;;;28.05;53.12
8280;BME280;8335;42.646;23.380;2023-06-14T10:15:48;148414.50;;;27.74;54.01
8280;BME280;8335;42.646;23.380;2023-06-14T10:18:24;148249.56;;;27.07;56.51
8280;BME280;8335;42.646;23.380;2023-06-14T10:21:04;148218.09;;;26.94;56.33
8280;BME280;8335;42.646;23.380;2023-06-14T10:23:37;148214.28;;;26.93;56.51
8280;BME280;8335;42.646;23.380;2023-06-14T10:26:07;148348.97;;;27.47;55.67
8280;BME280;8335;42.646;23.380;2023-06-14T10:28:37;148393.06;;;27.65;54.57
8280;BME280;8335;42.646;23.380;2023-06-14T10:31:06;148503.88;;;28.10;52.12
8280;BME280;8335;42.646;23.380;2023-06-14T10:33:34;148628.56;;;28.60;50.73
8280;BME280;8335;42.646;23.380;2023-06-14T10:36:10;148700.34;;;28.89;49.61
8280;BME280;8335;42.646;23.380;2023-06-14T10:38:46;148705.41;;;28.91;50.09
8280;BME280;8335;42.646;23.380;2023-06-14T10:41:13;148647.44;;;28.68;50.86
8280;BME280;8335;42.646;23.380;2023-06-14T10:43:39;148667.59;;;28.76;53.35
8280;BME280;8335;42.646;23.380;2023-06-14T10:46:18;148748.28;;;29.09;49.60
8280;BME280;8335;42.646;23.380;2023-06-14T10:48:48;148792.34;;;29.26;49.83
8280;BME280;8335;42.646;23.380;2023-06-14T10:51:16;148825.13;;;29.40;49.30
8280;BME280;8335;42.646;23.380;2023-06-14T10:53:46;148841.50;;;29.46;47.59
8280;BME280;8335;42.646;23.380;2023-06-14T10:56:26;148830.13;;;29.42;48.79
8280;BME280;8335;42.646;23.380;2023-06-14T10:58:54;148825.13;;;29.40;49.35
8280;BME280;8335;42.646;23.380;2023-06-14T11:01:32;148747.03;;;29.08;48.65
8280;BME280;8335;42.646;23.380;2023-06-14T11:04:07;148668.84;;;28.76;50.16
8280;BME280;8335;42.646;23.380;2023-06-14T11:06:50;148589.53;;;28.44;50.37
8280;BME280;8335;42.646;23.380;2023-06-14T11:12:21;148508.88;;;28.12;53.66
8280;BME280;8335;42.646;23.380;2023-06-14T11:14:49;148482.47;;;28.01;52.92
8280;BME280;8335;42.646;23.380;2023-06-14T11:17:17;148466.09;;;27.94;51.93
8280;BME280;8335;42.646;23.380;2023-06-14T11:19:44;148429.59;;;27.80;53.14
8280;BME280;8335;42.646;23.380;2023-06-14T11:22:10;148429.59;;;27.80;53.05
8280;BME280;8335;42.646;23.380;2023-06-14T11:24:40;148405.66;;;27.70;51.61
8280;BME280;8335;42.646;23.380;2023-06-14T11:27:06;148427.03;;;27.79;52.48
8280;BME280;8335;42.646;23.380;2023-06-14T11:29:34;148435.88;;;27.82;52.69
8280;BME280;8335;42.646;23.380;2023-06-14T11:32:02;148365.34;;;27.54;53.86
8280;BME280;8335;42.646;23.380;2023-06-14T11:34:30;148287.34;;;27.22;54.36
8280;BME280;8335;42.646;23.380;2023-06-14T11:36:57;148267.19;;;27.14;54.79
8280;BME280;8335;42.646;23.380;2023-06-14T11:39:24;148263.41;;;27.12;53.35
8280;BME280;8335;42.646;23.380;2023-06-14T11:41:52;148236.97;;;27.02;54.74
8280;BME280;8335;42.646;23.380;2023-06-14T11:44:20;148220.59;;;26.95;56.64
8280;BME280;8335;42.646;23.380;2023-06-14T11:46:47;148160.19;;;26.71;57.06
8280;BME280;8335;42.646;23.380;2023-06-14T11:49:15;148063.34;;;26.31;57.62
8280;BME280;8335;42.646;23.380;2023-06-14T11:51:44;148020.53;;;26.14;58.06
8280;BME280;8335;42.646;23.380;2023-06-14T11:54:11;148031.88;;;26.19;58.33
8280;BME280;8335;42.646;23.380;2023-06-14T11:56:38;148069.59;;;26.34;58.19
8280;BME280;8335;42.646;23.380;2023-06-14T11:59:05;148117.44;;;26.53;57.39
8280;BME280;8335;42.646;23.380;2023-06-14T12:01:35;148174.03;;;26.76;57.44
8280;BME280;8335;42.646;23.380;2023-06-14T12:04:02;148199.22;;;26.86;57.02
8280;BME280;8335;42.646;23.380;2023-06-14T12:06:30;148220.59;;;26.95;55.55
8280;BME280;8335;42.646;23.380;2023-06-14T12:09:05;148226.88;;;26.98;56.21
8280;BME280;8335;42.646;23.380;2023-06-14T12:11:38;148206.75;;;26.89;56.04
8280;BME280;8335;42.646;23.380;2023-06-14T12:14:05;148179.06;;;26.78;56.12
8280;BME280;8335;42.646;23.380;2023-06-14T12:16:33;148138.81;;;26.62;57.13
8280;BME280;8335;42.646;23.380;2023-06-14T12:19:01;148118.72;;;26.54;57.83
8280;BME280;8335;42.646;23.380;2023-06-14T12:21:36;148124.97;;;26.56;56.98
8280;BME280;8335;42.646;23.380;2023-06-14T12:24:07;148087.25;;;26.41;57.06
8280;BME280;8335;42.646;23.380;2023-06-14T12:26:37;148141.34;;;26.63;57.07
8280;BME280;8335;42.646;23.380;2023-06-14T12:29:05;148152.66;;;26.68;56.92
8280;BME280;8335;42.646;23.380;2023-06-14T12:31:32;148137.56;;;26.61;56.69
8280;BME280;8335;42.646;23.380;2023-06-14T12:33:59;148131.28;;;26.59;57.91
8280;BME280;8335;42.646;23.380;2023-06-14T12:36:26;148112.44;;;26.51;57.56
8280;BME280;8335;42.646;23.380;2023-06-14T12:38:53;148117.44;;;26.53;58.05
8280;BME280;8335;42.646;23.380;2023-06-14T12:41:21;148128.78;;;26.58;58.30
8280;BME280;8335;42.646;23.380;2023-06-14T12:43:48;148122.47;;;26.55;57.54
8280;BME280;8335;42.646;23.380;2023-06-14T12:46:15;148126.22;;;26.57;57.58
8280;BME280;8335;42.646;23.380;2023-06-14T12:48:41;148137.56;;;26.61;57.20
8280;BME280;8335;42.646;23.380;2023-06-14T12:51:08;148117.44;;;26.53;57.73
8280;BME280;8335;42.646;23.380;2023-06-14T12:53:35;148124.97;;;26.56;56.63
8280;BME280;8335;42.646;23.380;2023-06-14T12:56:01;148082.25;;;26.39;56.84
8280;BME280;8335;42.646;23.380;2023-06-14T12:58:30;148008.00;;;26.09;58.25
8280;BME280;8335;42.646;23.380;2023-06-14T13:00:56;147987.91;;;26.01;57.69
8280;BME280;8335;42.646;23.380;2023-06-14T13:03:23;147904.88;;;25.67;63.39